createdAt,value
2022-08-19T00:01:52.776Z,13.18
2022-08-19T00:04:27.505Z,13.20
2022-08-19T00:06:54.767Z,13.05
2022-08-19T00:09:23.944Z,13.55
2022-08-19T00:11:51.764Z,13.43
2022-08-19T00:14:21.551Z,13.88
2022-08-19T00:16:49.635Z,14.07
2022-08-19T00:19:17.893Z,13.10
2022-08-19T00:21:45.148Z,13.57
2022-08-19T00:24:14.778Z,13.98
2022-08-19T00:26:44.282Z,13.73
2022-08-19T00:29:13.838Z,14.50
2022-08-19T00:31:41.558Z,14.13
2022-08-19T00:34:08.808Z,14.43
2022-08-19T00:36:36.174Z,13.93
2022-08-19T00:39:04.094Z,15.60
2022-08-19T00:41:31.332Z,14.60
2022-08-19T00:44:05.743Z,14.15
2022-08-19T00:46:34.557Z,15.23
2022-08-19T00:49:07.564Z,15.30
2022-08-19T00:51:35.708Z,16.65
2022-08-19T00:54:04.038Z,15.95
2022-08-19T00:56:32.474Z,15.27
2022-08-19T00:59:00.134Z,16.42
2022-08-19T01:01:27.589Z,16.52
2022-08-19T01:03:57.691Z,15.82
2022-08-19T01:06:28.074Z,17.95
2022-08-19T01:08:56.395Z,17.70
2022-08-19T01:11:23.426Z,19.05
2022-08-19T01:13:53.103Z,16.50
2022-08-19T01:16:23.622Z,19.70
2022-08-19T01:18:51.362Z,19.48
2022-08-19T01:21:39.411Z,19.52
2022-08-19T01:24:07.651Z,20.40
2022-08-19T01:26:40.545Z,18.98
2022-08-19T01:29:09.912Z,20.13
2022-08-19T01:31:37.390Z,20.45
2022-08-19T01:34:05.275Z,20.30
2022-08-19T01:36:39.330Z,20.73
2022-08-19T01:39:10.716Z,19.83
2022-08-19T01:41:37.865Z,21.15
2022-08-19T01:44:17.412Z,20.52
2022-08-19T01:46:48.348Z,21.20
2022-08-19T01:49:16.329Z,23.17
2022-08-19T01:51:43.296Z,23.75
2022-08-19T01:54:12.731Z,23.08
2022-08-19T01:56:40.097Z,24.77
2022-08-19T01:59:12.731Z,23.92
2022-08-19T02:01:40.291Z,24.17
2022-08-19T02:04:08.101Z,25.95
2022-08-19T02:06:36.666Z,24.23
2022-08-19T02:09:08.983Z,23.98
2022-08-19T02:11:37.800Z,24.90
2022-08-19T02:14:08.004Z,25.35
2022-08-19T02:16:35.953Z,24.85
2022-08-19T02:19:03.689Z,24.65
2022-08-19T02:21:30.959Z,24.65
2022-08-19T02:23:58.431Z,22.55
2022-08-19T02:26:27.529Z,22.52
2022-08-19T02:28:55.582Z,21.88
2022-08-19T02:31:25.802Z,20.23
2022-08-19T02:33:53.579Z,19.40
2022-08-19T02:36:25.432Z,18.67
2022-08-19T02:38:54.825Z,19.13
2022-08-19T02:41:29.043Z,18.55
2022-08-19T02:44:30.313Z,18.20
2022-08-19T02:46:52.214Z,17.42
2022-08-19T02:49:21.195Z,16.33
2022-08-19T02:51:48.494Z,16.90
2022-08-19T02:54:16.303Z,16.33
2022-08-19T02:56:44.859Z,18.23
2022-08-19T02:59:12.939Z,17.05
2022-08-19T03:01:43.029Z,17.15
2022-08-19T03:04:13.582Z,17.70
2022-08-19T03:06:42.597Z,17.25
2022-08-19T03:09:10.161Z,15.95
2022-08-19T03:11:37.902Z,15.10
2022-08-19T03:14:07.091Z,16.73
2022-08-19T03:16:40.622Z,16.23
2022-08-19T03:19:07.804Z,15.73
2022-08-19T03:21:37.322Z,16.52
2022-08-19T03:24:08.499Z,15.95
2022-08-19T03:26:41.469Z,16.17
2022-08-19T03:29:11.534Z,17.05
2022-08-19T03:31:52.200Z,15.50
2022-08-19T03:34:24.040Z,16.38
2022-08-19T03:36:51.332Z,16.35
2022-08-19T03:39:19.663Z,16.48
2022-08-19T03:41:48.825Z,16.50
2022-08-19T03:44:19.241Z,16.00
2022-08-19T03:46:53.421Z,16.63
2022-08-19T03:49:21.326Z,17.13
2022-08-19T03:51:55.750Z,15.60
2022-08-19T03:54:24.880Z,16.60
2022-08-19T03:56:54.662Z,15.93
2022-08-19T03:59:34.584Z,16.45
2022-08-19T04:02:08.147Z,17.33
2022-08-19T04:04:35.053Z,15.88
2022-08-19T04:07:02.266Z,16.60
2022-08-19T04:09:29.403Z,16.70
2022-08-19T04:11:58.239Z,17.00
2022-08-19T04:14:31.251Z,15.65
2022-08-19T04:16:59.866Z,16.08
2022-08-19T04:19:27.619Z,16.50
2022-08-19T04:21:55.517Z,16.17
2022-08-19T04:24:23.519Z,16.65
2022-08-19T04:26:50.978Z,16.42
2022-08-19T04:29:26.234Z,15.77
2022-08-19T04:31:55.300Z,15.98
2022-08-19T04:34:24.911Z,16.23
2022-08-19T04:36:57.041Z,16.70
2022-08-19T04:39:46.855Z,15.85
2022-08-19T04:42:33.047Z,16.58
2022-08-19T04:45:00.363Z,16.50
2022-08-19T04:47:48.272Z,14.77
2022-08-19T04:50:14.870Z,15.75
2022-08-19T04:52:43.847Z,17.23
2022-08-19T04:55:15.384Z,15.20
2022-08-19T04:57:42.357Z,15.85
2022-08-19T05:00:11.061Z,15.32
2022-08-19T05:02:39.847Z,14.93
2022-08-19T05:05:07.654Z,15.30
2022-08-19T05:07:35.516Z,16.08
2022-08-19T05:10:03.836Z,15.35
2022-08-19T05:12:30.877Z,14.40
2022-08-19T05:14:59.457Z,14.95
2022-08-19T05:17:30.302Z,15.05
2022-08-19T05:20:19.050Z,16.45
2022-08-19T05:22:47.942Z,15.95
2022-08-19T05:25:20.358Z,14.15
2022-08-19T05:27:48.639Z,15.55
2022-08-19T05:30:16.609Z,14.85
2022-08-19T05:32:44.160Z,14.07
2022-08-19T05:35:12.777Z,16.08
2022-08-19T05:37:43.521Z,13.50
2022-08-19T05:40:11.004Z,13.80
2022-08-19T05:42:38.816Z,13.77
2022-08-19T05:45:08.908Z,13.13
2022-08-19T05:47:36.641Z,14.05
2022-08-19T05:50:10.211Z,12.93
2022-08-19T05:52:39.278Z,13.20
2022-08-19T05:55:11.527Z,13.77
2022-08-19T05:57:38.717Z,13.45
2022-08-19T06:00:11.724Z,12.95
2022-08-19T06:02:39.418Z,12.95
2022-08-19T06:05:08.364Z,13.75
2022-08-19T06:10:02.242Z,12.88
2022-08-19T06:12:35.427Z,13.32
2022-08-19T06:15:07.055Z,12.93
2022-08-19T06:17:35.834Z,12.88
2022-08-19T06:20:08.417Z,13.07
2022-08-19T06:22:44.082Z,13.15
2022-08-19T06:25:12.421Z,13.77
2022-08-19T06:27:58.570Z,12.40
2022-08-19T06:30:27.754Z,10.82
2022-08-19T06:32:54.947Z,13.38
2022-08-19T06:35:21.906Z,12.98
2022-08-19T06:37:48.796Z,12.85
2022-08-19T06:40:16.189Z,13.05
2022-08-19T06:42:49.453Z,12.73
2022-08-19T06:45:34.346Z,13.07
2022-08-19T06:48:01.948Z,11.88
2022-08-19T06:50:28.815Z,13.02
2022-08-19T06:52:56.141Z,12.75
2022-08-19T06:55:24.118Z,13.32
2022-08-19T06:57:54.525Z,12.15
2022-08-19T07:00:21.925Z,13.18
2022-08-19T07:02:54.633Z,12.63
2022-08-19T07:05:24.582Z,12.32
2022-08-19T07:07:51.817Z,13.18
2022-08-19T07:10:20.149Z,12.68
2022-08-19T07:12:48.540Z,12.35
2022-08-19T07:15:17.226Z,11.75
2022-08-19T07:17:45.947Z,12.88
2022-08-19T07:20:16.348Z,12.38
2022-08-19T07:22:46.468Z,12.90
2022-08-19T07:25:14.309Z,13.20
2022-08-19T07:27:41.309Z,12.38
2022-08-19T07:30:14.489Z,11.57
2022-08-19T07:32:42.121Z,13.43
2022-08-19T07:35:10.568Z,12.07
2022-08-19T07:37:38.282Z,12.95
2022-08-19T07:40:07.509Z,11.85
2022-08-19T07:42:34.613Z,11.13
2022-08-19T07:45:01.789Z,11.50
2022-08-19T07:47:49.106Z,11.15
2022-08-19T07:50:17.336Z,10.88
2022-08-19T07:52:48.775Z,11.60
2022-08-19T07:55:40.077Z,10.45
2022-08-19T07:58:06.071Z,9.93
2022-08-19T08:00:33.599Z,11.02
2022-08-19T08:03:00.677Z,9.60
2022-08-19T08:05:46.403Z,10.80
2022-08-19T08:08:34.010Z,10.95
2022-08-19T08:11:01.265Z,10.15
2022-08-19T08:13:29.153Z,10.30
2022-08-19T08:15:57.015Z,10.55
2022-08-19T08:18:27.945Z,10.95
2022-08-19T08:20:58.171Z,10.20
2022-08-19T08:23:29.615Z,11.25
2022-08-19T08:25:58.839Z,9.45
2022-08-19T08:28:29.817Z,10.77
2022-08-19T08:30:58.390Z,9.48
2022-08-19T08:33:32.788Z,10.27
2022-08-19T08:36:04.206Z,9.02
2022-08-19T08:38:38.913Z,10.18
2022-08-19T08:41:14.371Z,9.95
2022-08-19T08:43:45.364Z,9.38
2022-08-19T08:46:30.477Z,9.25
2022-08-19T08:49:10.408Z,9.90
2022-08-19T08:51:59.993Z,9.50
2022-08-19T08:54:38.294Z,9.38
2022-08-19T08:57:15.245Z,9.48
2022-08-19T08:59:44.258Z,9.35
2022-08-19T09:02:11.407Z,10.05
2022-08-19T09:04:40.046Z,9.77
2022-08-19T09:07:35.037Z,9.50
2022-08-19T09:10:16.521Z,9.40
2022-08-19T09:12:55.306Z,9.82
2022-08-19T09:15:33.295Z,9.35
2022-08-19T09:18:07.172Z,9.32
2022-08-19T09:20:34.788Z,9.30
2022-08-19T09:23:02.489Z,9.30
2022-08-19T09:25:29.868Z,9.60
2022-08-19T09:28:03.102Z,8.93
2022-08-19T09:30:35.974Z,9.60
2022-08-19T09:33:03.301Z,8.05
2022-08-19T09:35:31.204Z,8.05
2022-08-19T09:38:00.076Z,8.98
2022-08-19T09:40:37.765Z,8.32
2022-08-19T09:43:11.404Z,8.52
2022-08-19T09:45:40.889Z,7.90
2022-08-19T09:48:09.451Z,8.57
2022-08-19T09:50:51.464Z,8.45
2022-08-19T09:53:25.364Z,9.50
2022-08-19T09:55:56.538Z,8.73
2022-08-19T09:58:28.597Z,9.55
2022-08-19T10:00:57.627Z,8.73
2022-08-19T10:03:25.510Z,8.68
2022-08-19T10:05:59.261Z,9.05
2022-08-19T10:08:29.627Z,9.40
2022-08-19T10:10:58.913Z,9.45
2022-08-19T10:13:30.253Z,8.55
2022-08-19T10:16:07.188Z,9.05
2022-08-19T10:18:38.361Z,9.35
2022-08-19T10:21:12.864Z,8.82
2022-08-19T10:23:46.444Z,9.07
2022-08-19T10:26:17.073Z,8.82
2022-08-19T10:28:47.186Z,8.52
2022-08-19T10:31:20.767Z,9.32
2022-08-19T10:34:07.688Z,8.50
2022-08-19T10:36:37.980Z,9.25
2022-08-19T10:39:23.590Z,8.45
2022-08-19T10:41:50.572Z,8.88
2022-08-19T10:44:19.130Z,8.20
2022-08-19T10:46:48.925Z,8.98
2022-08-19T10:49:17.886Z,8.55
2022-08-19T10:52:04.706Z,9.48
2022-08-19T10:54:55.931Z,8.90
2022-08-19T10:57:27.911Z,8.45
2022-08-19T11:00:05.670Z,8.43
2022-08-19T11:02:33.894Z,9.07
2022-08-19T11:05:09.077Z,8.52
2022-08-19T11:07:40.674Z,8.27
2022-08-19T11:10:13.031Z,8.40
2022-08-19T11:12:41.718Z,8.05
2022-08-19T11:15:12.100Z,8.07
2022-08-19T11:17:44.167Z,7.57
2022-08-19T11:20:14.822Z,7.00
2022-08-19T11:22:43.325Z,7.38
2022-08-19T11:25:12.777Z,7.32
2022-08-19T11:27:45.868Z,8.25
2022-08-19T11:30:14.671Z,7.63
2022-08-19T11:32:48.574Z,8.35
2022-08-19T11:35:17.205Z,7.50
2022-08-19T11:37:50.190Z,6.72
2022-08-19T11:40:18.982Z,6.78
2022-08-19T11:42:58.334Z,7.28
2022-08-19T11:45:29.116Z,6.15
2022-08-19T11:47:56.987Z,6.47
2022-08-19T11:50:24.768Z,6.72
2022-08-19T11:52:55.459Z,6.55
2022-08-19T11:55:22.729Z,6.68
2022-08-19T11:57:50.182Z,7.28
2022-08-19T12:00:17.792Z,7.25
2022-08-19T12:02:44.986Z,6.28
2022-08-19T12:05:13.132Z,5.93
2022-08-19T12:07:42.485Z,6.70
2022-08-19T12:10:10.820Z,6.32
2022-08-19T12:12:43.785Z,6.82
2022-08-19T12:15:15.447Z,5.35
2022-08-19T12:17:43.937Z,6.65
2022-08-19T12:20:12.634Z,6.53
2022-08-19T12:22:42.190Z,5.72
2022-08-19T12:25:11.493Z,6.38
2022-08-19T12:27:41.653Z,5.95
2022-08-19T12:30:12.787Z,6.10
2022-08-19T12:32:40.533Z,6.75
2022-08-19T12:35:09.187Z,6.47
2022-08-19T12:37:36.359Z,6.20
2022-08-19T12:40:04.527Z,7.18
2022-08-19T12:42:31.671Z,6.38
2022-08-19T12:44:58.588Z,6.63
2022-08-19T12:47:27.613Z,6.30
2022-08-19T12:49:55.982Z,6.57
2022-08-19T12:52:28.192Z,7.07
2022-08-19T12:54:57.528Z,6.63
2022-08-19T12:57:32.673Z,7.32
2022-08-19T13:00:16.222Z,6.32
2022-08-19T13:02:46.670Z,6.28
2022-08-19T13:05:17.684Z,6.40
2022-08-19T13:07:47.149Z,5.93
2022-08-19T13:10:19.428Z,6.10
2022-08-19T13:12:48.803Z,5.93
2022-08-19T13:15:23.794Z,6.40
2022-08-19T13:17:54.075Z,6.18
2022-08-19T13:20:22.605Z,5.95
2022-08-19T13:22:49.993Z,5.97
2022-08-19T13:25:20.220Z,5.90
2022-08-19T13:27:49.355Z,6.30
2022-08-19T13:30:39.158Z,5.78
2022-08-19T13:33:12.577Z,6.05
2022-08-19T13:35:51.400Z,6.25
2022-08-19T13:38:21.597Z,5.78
2022-08-19T13:40:51.768Z,5.55
2022-08-19T13:43:23.392Z,5.47
2022-08-19T13:45:57.089Z,6.10
2022-08-19T13:48:27.490Z,5.88
2022-08-19T13:50:55.197Z,5.68
2022-08-19T13:53:22.758Z,6.10
2022-08-19T13:55:51.502Z,5.55
2022-08-19T13:58:19.889Z,5.50
2022-08-19T14:00:48.604Z,5.97
2022-08-19T14:03:18.639Z,5.40
2022-08-19T14:05:47.699Z,6.00
2022-08-19T14:08:15.257Z,5.60
2022-08-19T14:10:45.258Z,6.15
2022-08-19T14:13:15.964Z,5.47
2022-08-19T14:15:44.594Z,5.82
2022-08-19T14:18:12.839Z,5.55
2022-08-19T14:20:41.942Z,5.70
2022-08-19T14:23:09.037Z,6.05
2022-08-19T14:25:36.305Z,6.15
2022-08-19T14:28:03.821Z,5.50
2022-08-19T14:30:33.824Z,5.82
2022-08-19T14:33:03.474Z,5.70
2022-08-19T14:35:35.580Z,5.63
2022-08-19T14:38:07.466Z,5.38
2022-08-19T14:40:35.699Z,5.95
2022-08-19T14:43:05.521Z,5.18
2022-08-19T14:45:37.367Z,5.28
2022-08-19T14:48:05.926Z,5.88
2022-08-19T14:50:33.495Z,5.43
2022-08-19T14:53:12.345Z,6.05
2022-08-19T14:55:45.484Z,5.60
2022-08-19T14:58:29.297Z,6.03
2022-08-19T15:00:59.355Z,5.93
2022-08-19T15:03:27.048Z,6.10
2022-08-19T15:05:54.481Z,5.57
2022-08-19T15:08:23.496Z,5.80
2022-08-19T15:10:50.375Z,6.43
2022-08-19T15:13:17.546Z,5.72
2022-08-19T15:15:44.662Z,5.68
2022-08-19T15:18:12.527Z,5.85
2022-08-19T15:20:40.044Z,6.07
2022-08-19T15:23:09.254Z,5.93
2022-08-19T15:25:36.705Z,5.72
2022-08-19T15:28:04.471Z,6.03
2022-08-19T15:30:31.557Z,5.95
2022-08-19T15:32:59.262Z,6.38
2022-08-19T15:35:27.494Z,7.03
2022-08-19T15:37:56.985Z,6.63
2022-08-19T15:40:26.578Z,5.90
2022-08-19T15:42:54.233Z,6.28
2022-08-19T15:45:22.614Z,6.03
2022-08-19T15:47:49.660Z,6.03
2022-08-19T15:50:21.344Z,6.38
2022-08-19T15:52:52.270Z,6.38
2022-08-19T15:55:32.512Z,6.47
2022-08-19T15:58:28.534Z,6.32
2022-08-19T16:01:20.779Z,6.47
2022-08-19T16:04:14.356Z,6.25
2022-08-19T16:06:54.708Z,5.93
2022-08-19T16:09:27.523Z,5.57
2022-08-19T16:12:02.366Z,5.28
2022-08-19T16:14:36.014Z,5.38
2022-08-19T16:17:03.378Z,5.75
2022-08-19T16:19:31.057Z,5.28
2022-08-19T16:21:57.980Z,5.72
2022-08-19T16:24:27.583Z,5.88
2022-08-19T16:26:54.955Z,5.38
2022-08-19T16:29:34.580Z,5.82
2022-08-19T16:32:12.565Z,5.70
2022-08-19T16:34:41.419Z,5.13
2022-08-19T16:37:10.056Z,5.57
2022-08-19T16:39:37.624Z,6.63
2022-08-19T16:42:07.704Z,5.63
2022-08-19T16:44:35.540Z,5.75
2022-08-19T16:47:02.851Z,5.70
2022-08-19T16:49:53.297Z,5.50
2022-08-19T16:52:19.836Z,5.95
2022-08-19T16:54:47.587Z,5.57
2022-08-19T16:57:14.794Z,5.53
2022-08-19T16:59:42.610Z,6.35
2022-08-19T17:02:19.999Z,6.47
2022-08-19T17:04:58.402Z,5.88
2022-08-19T17:07:27.847Z,5.57
2022-08-19T17:09:55.659Z,6.20
2022-08-19T17:12:30.394Z,6.25
2022-08-19T17:14:59.899Z,6.30
2022-08-19T17:17:29.374Z,6.28
2022-08-19T17:20:01.413Z,5.93
2022-08-19T17:22:29.000Z,6.43
2022-08-19T17:24:57.958Z,6.63
2022-08-19T17:27:26.839Z,6.80
2022-08-19T17:29:59.946Z,7.53
2022-08-19T17:32:27.363Z,7.35
2022-08-19T17:34:54.662Z,7.65
2022-08-19T17:37:21.850Z,6.90
2022-08-19T17:39:49.177Z,6.85
2022-08-19T17:42:16.172Z,9.05
2022-08-19T17:44:44.769Z,7.72
2022-08-19T17:47:17.552Z,8.48
2022-08-19T17:49:44.417Z,7.05
2022-08-19T17:52:11.900Z,7.10
2022-08-19T17:54:38.889Z,7.40
2022-08-19T17:57:05.874Z,6.18
2022-08-19T17:59:32.771Z,7.13
2022-08-19T18:01:59.968Z,6.93
2022-08-19T18:04:29.837Z,5.95
2022-08-19T18:06:56.847Z,6.47
2022-08-19T18:09:25.857Z,6.45
2022-08-19T18:11:54.558Z,5.63
2022-08-19T18:14:32.912Z,6.50
2022-08-19T18:17:09.284Z,6.55
2022-08-19T18:19:41.597Z,6.03
2022-08-19T18:22:22.658Z,6.10
2022-08-19T18:24:50.176Z,6.10
2022-08-19T18:27:17.257Z,6.72
2022-08-19T18:29:45.394Z,6.85
2022-08-19T18:32:13.057Z,6.30
2022-08-19T18:34:43.080Z,5.88
2022-08-19T18:37:10.698Z,6.65
2022-08-19T18:39:56.518Z,6.63
2022-08-19T18:42:42.274Z,7.30
2022-08-19T18:45:29.974Z,5.88
2022-08-19T18:48:26.719Z,6.35
2022-08-19T18:50:56.931Z,5.90
2022-08-19T18:53:25.025Z,6.00
2022-08-19T18:55:54.011Z,6.53
2022-08-19T18:58:26.331Z,6.25
2022-08-19T19:00:55.915Z,7.13
2022-08-19T19:03:24.402Z,6.20
2022-08-19T19:05:52.784Z,6.35
2022-08-19T19:08:20.111Z,6.25
2022-08-19T19:10:53.619Z,6.72
2022-08-19T19:13:20.929Z,6.18
2022-08-19T19:15:47.980Z,6.93
2022-08-19T19:18:15.967Z,6.57
2022-08-19T19:20:43.111Z,6.22
2022-08-19T19:23:10.001Z,6.05
2022-08-19T19:25:50.446Z,6.80
2022-08-19T19:28:23.943Z,6.43
2022-08-19T19:30:53.172Z,6.95
2022-08-19T19:33:20.869Z,6.70
2022-08-19T19:35:47.818Z,5.82
2022-08-19T19:38:14.834Z,6.35
2022-08-19T19:40:41.676Z,6.10
2022-08-19T19:43:08.770Z,6.13
2022-08-19T19:45:35.739Z,6.03
2022-08-19T19:48:02.707Z,6.50
2022-08-19T19:50:31.358Z,6.30
2022-08-19T19:52:58.671Z,6.28
2022-08-19T19:55:26.567Z,6.25
2022-08-19T19:57:54.158Z,5.95
2022-08-19T20:00:22.164Z,6.60
2022-08-19T20:02:50.848Z,5.95
2022-08-19T20:05:21.427Z,5.88
2022-08-19T20:08:08.350Z,5.30
2022-08-19T20:10:35.878Z,6.05
2022-08-19T20:13:04.365Z,5.85
2022-08-19T20:15:32.323Z,5.70
2022-08-19T20:18:01.028Z,5.65
2022-08-19T20:20:28.051Z,5.57
2022-08-19T20:22:55.205Z,5.93
2022-08-19T20:25:22.481Z,5.53
2022-08-19T20:27:49.748Z,6.22
2022-08-19T20:30:21.698Z,6.32
2022-08-19T20:32:50.668Z,5.93
2022-08-19T20:35:21.063Z,6.05
2022-08-19T20:37:48.654Z,6.05
2022-08-19T20:40:16.939Z,5.85
2022-08-19T20:42:50.652Z,6.07
2022-08-19T20:45:33.126Z,5.57
2022-08-19T20:48:03.089Z,5.63
2022-08-19T20:50:32.522Z,5.63
2022-08-19T20:53:00.698Z,5.78
2022-08-19T20:55:30.357Z,5.50
2022-08-19T20:57:58.694Z,5.90
2022-08-19T21:00:26.202Z,5.88
2022-08-19T21:02:53.364Z,5.63
2022-08-19T21:05:20.582Z,6.15
2022-08-19T21:07:47.821Z,5.55
2022-08-19T21:10:15.579Z,6.00
2022-08-19T21:12:44.437Z,4.93
2022-08-19T21:15:12.108Z,5.28
2022-08-19T21:17:39.077Z,6.22
2022-08-19T21:20:09.515Z,5.55
2022-08-19T21:22:37.098Z,5.90
2022-08-19T21:25:05.154Z,5.22
2022-08-19T21:27:32.431Z,5.57
2022-08-19T21:29:59.337Z,5.85
2022-08-19T21:32:26.200Z,5.07
2022-08-19T21:34:53.473Z,5.03
2022-08-19T21:37:25.663Z,5.80
2022-08-19T21:39:54.401Z,6.50
2022-08-19T21:42:23.151Z,5.78
2022-08-19T21:44:50.022Z,5.57
2022-08-19T21:47:17.262Z,5.78
2022-08-19T21:49:44.236Z,6.07
2022-08-19T21:52:11.214Z,6.13
2022-08-19T21:54:38.657Z,4.82
2022-08-19T21:57:10.126Z,5.97
2022-08-19T21:59:41.280Z,4.93
2022-08-19T22:02:20.334Z,6.18
2022-08-19T22:04:48.860Z,5.47
2022-08-19T22:07:15.868Z,5.75
2022-08-19T22:09:44.721Z,5.88
2022-08-19T22:12:30.353Z,4.22
2022-08-19T22:14:58.579Z,5.45
2022-08-19T22:17:27.490Z,5.07
2022-08-19T22:19:56.017Z,5.95
2022-08-19T22:22:25.534Z,6.13
2022-08-19T22:24:54.383Z,5.07
2022-08-19T22:27:21.532Z,5.18
2022-08-19T22:29:52.654Z,5.20
2022-08-19T22:32:27.183Z,5.07
2022-08-19T22:34:58.924Z,5.80
2022-08-19T22:37:28.886Z,5.63
2022-08-19T22:39:56.307Z,5.13
2022-08-19T22:42:27.492Z,5.70
2022-08-19T22:44:59.498Z,6.55
2022-08-19T22:47:29.465Z,5.88
2022-08-19T22:49:59.766Z,5.90
2022-08-19T22:52:27.079Z,4.80
2022-08-19T22:54:58.984Z,5.18
2022-08-19T22:57:27.366Z,5.20
2022-08-19T22:59:56.189Z,5.38
2022-08-19T23:02:34.648Z,5.90
2022-08-19T23:05:02.612Z,5.13
2022-08-19T23:07:29.730Z,5.65
2022-08-19T23:09:57.387Z,5.50
2022-08-19T23:12:40.146Z,5.78
2022-08-19T23:15:17.496Z,5.68
2022-08-19T23:17:46.435Z,5.22
2022-08-19T23:20:15.295Z,5.75
2022-08-19T23:22:45.380Z,5.25
2022-08-19T23:25:16.429Z,5.50
2022-08-19T23:28:02.844Z,5.72
2022-08-19T23:30:31.951Z,6.47
2022-08-19T23:33:01.659Z,5.47
2022-08-19T23:35:34.842Z,6.43
2022-08-19T23:38:02.830Z,5.70
2022-08-19T23:40:30.209Z,5.82
2022-08-19T23:42:58.364Z,5.28
2022-08-19T23:45:27.657Z,6.00
2022-08-19T23:47:55.494Z,5.85
2022-08-19T23:50:25.053Z,5.50
2022-08-19T23:52:54.758Z,5.82
2022-08-19T23:55:24.937Z,5.78
2022-08-19T23:57:52.586Z,5.03
